sensor_id;sensor_type;location;lat;lon;timestamp;P1;durP1;ratioP1;P2;durP2;ratioP2
57651;SDS011;43480;53.116;6.734;2023-11-18T00:01:25;68.88;;;41.15;;
57651;SDS011;43480;53.116;6.734;2023-11-18T00:03:57;69.43;;;39.50;;
57651;SDS011;43480;53.116;6.734;2023-11-18T00:06:22;74.07;;;39.50;;
57651;SDS011;43480;53.116;6.734;2023-11-18T00:08:48;67.60;;;39.28;;
57651;SDS011;43480;53.116;6.734;2023-11-18T00:11:14;65.30;;;38.65;;
57651;SDS011;43480;53.116;6.734;2023-11-18T00:13:40;61.72;;;38.42;;
57651;SDS011;43480;53.116;6.734;2023-11-18T00:16:08;81.85;;;43.85;;
57651;SDS011;43480;53.116;6.734;2023-11-18T00:18:41;62.65;;;38.33;;
57651;SDS011;43480;53.116;6.734;2023-11-18T00:21:07;89.60;;;43.53;;
57651;SDS011;43480;53.116;6.734;2023-11-18T00:23:33;78.55;;;41.10;;
57651;SDS011;43480;53.116;6.734;2023-11-18T00:25:59;66.72;;;38.10;;
57651;SDS011;43480;53.116;6.734;2023-11-18T00:28:25;65.55;;;39.75;;
57651;SDS011;43480;53.116;6.734;2023-11-18T00:30:51;78.97;;;40.03;;
57651;SDS011;43480;53.116;6.734;2023-11-18T00:33:17;80.13;;;41.70;;
57651;SDS011;43480;53.116;6.734;2023-11-18T00:35:42;83.65;;;40.88;;
57651;SDS011;43480;53.116;6.734;2023-11-18T00:38:10;69.32;;;39.50;;
57651;SDS011;43480;53.116;6.734;2023-11-18T00:40:35;66.15;;;37.60;;
57651;SDS011;43480;53.116;6.734;2023-11-18T00:43:01;76.60;;;39.53;;
57651;SDS011;43480;53.116;6.734;2023-11-18T00:45:27;77.22;;;38.90;;
57651;SDS011;43480;53.116;6.734;2023-11-18T00:47:54;68.22;;;39.45;;
57651;SDS011;43480;53.116;6.734;2023-11-18T00:50:19;66.85;;;34.97;;
57651;SDS011;43480;53.116;6.734;2023-11-18T00:52:45;68.13;;;36.50;;
57651;SDS011;43480;53.116;6.734;2023-11-18T00:55:13;68.90;;;37.63;;
57651;SDS011;43480;53.116;6.734;2023-11-18T00:57:39;68.57;;;36.72;;
57651;SDS011;43480;53.116;6.734;2023-11-18T01:00:08;87.10;;;36.60;;
57651;SDS011;43480;53.116;6.734;2023-11-18T01:02:39;61.15;;;35.88;;
57651;SDS011;43480;53.116;6.734;2023-11-18T01:05:05;82.30;;;38.50;;
57651;SDS011;43480;53.116;6.734;2023-11-18T01:07:32;74.30;;;38.72;;
57651;SDS011;43480;53.116;6.734;2023-11-18T01:09:58;59.70;;;35.38;;
57651;SDS011;43480;53.116;6.734;2023-11-18T01:12:23;61.78;;;34.45;;
57651;SDS011;43480;53.116;6.734;2023-11-18T01:14:50;78.15;;;37.20;;
57651;SDS011;43480;53.116;6.734;2023-11-18T01:17:15;56.13;;;32.08;;
57651;SDS011;43480;53.116;6.734;2023-11-18T01:19:41;61.13;;;32.28;;
57651;SDS011;43480;53.116;6.734;2023-11-18T01:22:07;48.50;;;29.50;;
57651;SDS011;43480;53.116;6.734;2023-11-18T01:24:33;57.47;;;31.50;;
57651;SDS011;43480;53.116;6.734;2023-11-18T01:27:00;53.58;;;30.20;;
57651;SDS011;43480;53.116;6.734;2023-11-18T01:29:26;57.10;;;34.10;;
57651;SDS011;43480;53.116;6.734;2023-11-18T01:31:52;61.83;;;32.20;;
57651;SDS011;43480;53.116;6.734;2023-11-18T01:34:20;55.63;;;32.90;;
57651;SDS011;43480;53.116;6.734;2023-11-18T01:36:49;86.25;;;38.50;;
57651;SDS011;43480;53.116;6.734;2023-11-18T01:39:15;64.35;;;33.65;;
57651;SDS011;43480;53.116;6.734;2023-11-18T01:41:43;75.45;;;37.60;;
57651;SDS011;43480;53.116;6.734;2023-11-18T01:44:09;82.28;;;39.60;;
57651;SDS011;43480;53.116;6.734;2023-11-18T01:46:35;79.82;;;37.92;;
57651;SDS011;43480;53.116;6.734;2023-11-18T01:49:01;65.93;;;33.72;;
57651;SDS011;43480;53.116;6.734;2023-11-18T01:51:29;73.80;;;33.97;;
57651;SDS011;43480;53.116;6.734;2023-11-18T01:53:55;156.73;;;42.58;;
57651;SDS011;43480;53.116;6.734;2023-11-18T01:56:24;122.15;;;39.60;;
57651;SDS011;43480;53.116;6.734;2023-11-18T01:58:52;117.38;;;37.28;;
57651;SDS011;43480;53.116;6.734;2023-11-18T02:01:18;68.57;;;27.00;;
57651;SDS011;43480;53.116;6.734;2023-11-18T02:03:44;122.18;;;37.55;;
57651;SDS011;43480;53.116;6.734;2023-11-18T02:06:09;201.27;;;42.92;;
57651;SDS011;43480;53.116;6.734;2023-11-18T02:08:38;68.70;;;31.33;;
57651;SDS011;43480;53.116;6.734;2023-11-18T02:11:10;71.57;;;29.10;;
57651;SDS011;43480;53.116;6.734;2023-11-18T02:13:56;76.40;;;27.30;;
57651;SDS011;43480;53.116;6.734;2023-11-18T02:16:27;89.43;;;27.80;;
57651;SDS011;43480;53.116;6.734;2023-11-18T02:18:53;84.40;;;30.30;;
57651;SDS011;43480;53.116;6.734;2023-11-18T02:21:20;100.32;;;30.33;;
57651;SDS011;43480;53.116;6.734;2023-11-18T02:23:48;61.08;;;25.92;;
57651;SDS011;43480;53.116;6.734;2023-11-18T02:26:21;54.50;;;27.33;;
57651;SDS011;43480;53.116;6.734;2023-11-18T02:28:47;37.78;;;23.95;;
57651;SDS011;43480;53.116;6.734;2023-11-18T02:31:15;55.50;;;25.65;;
57651;SDS011;43480;53.116;6.734;2023-11-18T02:33:49;56.45;;;25.15;;
57651;SDS011;43480;53.116;6.734;2023-11-18T02:36:32;75.35;;;29.30;;
57651;SDS011;43480;53.116;6.734;2023-11-18T02:39:04;54.10;;;25.85;;
57651;SDS011;43480;53.116;6.734;2023-11-18T02:41:36;51.13;;;25.02;;
57651;SDS011;43480;53.116;6.734;2023-11-18T02:44:04;95.38;;;30.23;;
57651;SDS011;43480;53.116;6.734;2023-11-18T02:46:36;108.55;;;31.23;;
57651;SDS011;43480;53.116;6.734;2023-11-18T02:49:03;95.22;;;28.33;;
57651;SDS011;43480;53.116;6.734;2023-11-18T02:51:29;132.18;;;36.10;;
57651;SDS011;43480;53.116;6.734;2023-11-18T02:53:59;112.15;;;30.25;;
57651;SDS011;43480;53.116;6.734;2023-11-18T02:56:24;56.25;;;25.00;;
57651;SDS011;43480;53.116;6.734;2023-11-18T02:58:50;87.72;;;27.92;;
57651;SDS011;43480;53.116;6.734;2023-11-18T03:01:16;71.07;;;26.42;;
57651;SDS011;43480;53.116;6.734;2023-11-18T03:03:41;131.30;;;34.40;;
57651;SDS011;43480;53.116;6.734;2023-11-18T03:06:07;62.65;;;26.95;;
57651;SDS011;43480;53.116;6.734;2023-11-18T03:08:33;99.38;;;29.75;;
57651;SDS011;43480;53.116;6.734;2023-11-18T03:10:59;110.47;;;32.10;;
57651;SDS011;43480;53.116;6.734;2023-11-18T03:13:25;99.25;;;31.85;;
57651;SDS011;43480;53.116;6.734;2023-11-18T03:15:51;127.00;;;33.97;;
57651;SDS011;43480;53.116;6.734;2023-11-18T03:18:17;126.35;;;33.72;;
57651;SDS011;43480;53.116;6.734;2023-11-18T03:20:42;118.28;;;31.35;;
57651;SDS011;43480;53.116;6.734;2023-11-18T03:23:08;136.70;;;34.60;;
57651;SDS011;43480;53.116;6.734;2023-11-18T03:25:34;190.38;;;41.85;;
57651;SDS011;43480;53.116;6.734;2023-11-18T03:28:00;192.50;;;44.97;;
57651;SDS011;43480;53.116;6.734;2023-11-18T03:30:26;165.65;;;35.83;;
57651;SDS011;43480;53.116;6.734;2023-11-18T03:32:54;243.27;;;47.10;;
57651;SDS011;43480;53.116;6.734;2023-11-18T03:35:20;176.70;;;36.58;;
57651;SDS011;43480;53.116;6.734;2023-11-18T03:37:45;219.50;;;40.20;;
57651;SDS011;43480;53.116;6.734;2023-11-18T03:40:12;252.45;;;45.72;;
57651;SDS011;43480;53.116;6.734;2023-11-18T03:42:39;125.88;;;31.42;;
57651;SDS011;43480;53.116;6.734;2023-11-18T03:45:06;145.35;;;35.08;;
57651;SDS011;43480;53.116;6.734;2023-11-18T03:47:32;144.00;;;34.42;;
57651;SDS011;43480;53.116;6.734;2023-11-18T03:49:58;120.28;;;34.72;;
57651;SDS011;43480;53.116;6.734;2023-11-18T03:52:24;103.07;;;32.13;;
57651;SDS011;43480;53.116;6.734;2023-11-18T03:54:50;159.13;;;37.30;;
57651;SDS011;43480;53.116;6.734;2023-11-18T03:57:16;233.00;;;45.03;;
57651;SDS011;43480;53.116;6.734;2023-11-18T03:59:42;88.28;;;28.95;;
57651;SDS011;43480;53.116;6.734;2023-11-18T04:02:07;132.00;;;37.20;;
57651;SDS011;43480;53.116;6.734;2023-11-18T04:04:36;140.18;;;34.00;;
57651;SDS011;43480;53.116;6.734;2023-11-18T04:07:02;87.70;;;28.95;;
57651;SDS011;43480;53.116;6.734;2023-11-18T04:09:28;173.75;;;41.38;;
57651;SDS011;43480;53.116;6.734;2023-11-18T04:11:53;190.68;;;41.45;;
57651;SDS011;43480;53.116;6.734;2023-11-18T04:14:19;99.90;;;30.50;;
57651;SDS011;43480;53.116;6.734;2023-11-18T04:16:46;97.15;;;29.23;;
57651;SDS011;43480;53.116;6.734;2023-11-18T04:19:13;132.50;;;31.92;;
57651;SDS011;43480;53.116;6.734;2023-11-18T04:21:38;80.45;;;30.25;;
57651;SDS011;43480;53.116;6.734;2023-11-18T04:24:04;122.18;;;33.75;;
57651;SDS011;43480;53.116;6.734;2023-11-18T04:26:30;138.02;;;36.60;;
57651;SDS011;43480;53.116;6.734;2023-11-18T04:28:57;145.55;;;36.25;;
57651;SDS011;43480;53.116;6.734;2023-11-18T04:31:23;173.35;;;38.78;;
57651;SDS011;43480;53.116;6.734;2023-11-18T04:33:49;97.90;;;28.77;;
57651;SDS011;43480;53.116;6.734;2023-11-18T04:36:15;153.85;;;36.03;;
57651;SDS011;43480;53.116;6.734;2023-11-18T04:38:41;101.53;;;31.35;;
57651;SDS011;43480;53.116;6.734;2023-11-18T04:41:08;188.35;;;39.40;;
57651;SDS011;43480;53.116;6.734;2023-11-18T04:43:34;123.93;;;35.63;;
57651;SDS011;43480;53.116;6.734;2023-11-18T04:46:00;107.93;;;34.88;;
57651;SDS011;43480;53.116;6.734;2023-11-18T04:48:25;211.20;;;42.05;;
57651;SDS011;43480;53.116;6.734;2023-11-18T04:50:51;158.82;;;39.38;;
57651;SDS011;43480;53.116;6.734;2023-11-18T04:53:17;140.43;;;36.92;;
57651;SDS011;43480;53.116;6.734;2023-11-18T04:55:42;155.23;;;39.42;;
57651;SDS011;43480;53.116;6.734;2023-11-18T04:58:08;109.97;;;36.90;;
57651;SDS011;43480;53.116;6.734;2023-11-18T05:00:34;159.32;;;38.22;;
57651;SDS011;43480;53.116;6.734;2023-11-18T05:03:03;210.57;;;45.33;;
57651;SDS011;43480;53.116;6.734;2023-11-18T05:05:29;168.25;;;39.95;;
57651;SDS011;43480;53.116;6.734;2023-11-18T05:07:55;137.52;;;37.90;;
57651;SDS011;43480;53.116;6.734;2023-11-18T05:10:21;108.75;;;36.65;;
57651;SDS011;43480;53.116;6.734;2023-11-18T05:12:47;202.68;;;45.00;;
57651;SDS011;43480;53.116;6.734;2023-11-18T05:15:20;148.57;;;39.38;;
57651;SDS011;43480;53.116;6.734;2023-11-18T05:17:49;140.02;;;39.00;;
57651;SDS011;43480;53.116;6.734;2023-11-18T05:20:16;111.35;;;36.55;;
57651;SDS011;43480;53.116;6.734;2023-11-18T05:22:42;152.00;;;41.53;;
57651;SDS011;43480;53.116;6.734;2023-11-18T05:25:09;132.00;;;39.67;;
57651;SDS011;43480;53.116;6.734;2023-11-18T05:27:35;174.25;;;43.60;;
57651;SDS011;43480;53.116;6.734;2023-11-18T05:30:01;149.00;;;42.53;;
57651;SDS011;43480;53.116;6.734;2023-11-18T05:32:27;153.65;;;38.80;;
57651;SDS011;43480;53.116;6.734;2023-11-18T05:34:53;219.35;;;49.75;;
57651;SDS011;43480;53.116;6.734;2023-11-18T05:37:26;139.00;;;41.03;;
57651;SDS011;43480;53.116;6.734;2023-11-18T05:39:54;272.70;;;52.78;;
57651;SDS011;43480;53.116;6.734;2023-11-18T05:42:40;168.50;;;38.95;;
57651;SDS011;43480;53.116;6.734;2023-11-18T05:45:07;194.57;;;46.63;;
57651;SDS011;43480;53.116;6.734;2023-11-18T05:47:34;244.85;;;51.20;;
57651;SDS011;43480;53.116;6.734;2023-11-18T05:50:00;164.68;;;43.28;;
57651;SDS011;43480;53.116;6.734;2023-11-18T05:52:25;283.75;;;51.42;;
57651;SDS011;43480;53.116;6.734;2023-11-18T05:54:51;208.02;;;49.00;;
57651;SDS011;43480;53.116;6.734;2023-11-18T05:57:17;167.82;;;41.88;;
57651;SDS011;43480;53.116;6.734;2023-11-18T05:59:43;205.32;;;46.00;;
57651;SDS011;43480;53.116;6.734;2023-11-18T06:02:09;175.23;;;46.38;;
57651;SDS011;43480;53.116;6.734;2023-11-18T06:04:42;250.02;;;51.03;;
57651;SDS011;43480;53.116;6.734;2023-11-18T06:07:09;293.85;;;54.00;;
57651;SDS011;43480;53.116;6.734;2023-11-18T06:09:34;334.02;;;59.25;;
57651;SDS011;43480;53.116;6.734;2023-11-18T06:12:00;284.05;;;52.33;;
57651;SDS011;43480;53.116;6.734;2023-11-18T06:14:27;368.17;;;62.58;;
57651;SDS011;43480;53.116;6.734;2023-11-18T06:16:53;202.55;;;48.50;;
57651;SDS011;43480;53.116;6.734;2023-11-18T06:19:18;156.27;;;42.05;;
57651;SDS011;43480;53.116;6.734;2023-11-18T06:21:45;204.73;;;48.75;;
57651;SDS011;43480;53.116;6.734;2023-11-18T06:24:11;220.98;;;50.65;;
57651;SDS011;43480;53.116;6.734;2023-11-18T06:26:38;261.65;;;54.65;;
57651;SDS011;43480;53.116;6.734;2023-11-18T06:29:04;314.70;;;60.70;;
57651;SDS011;43480;53.116;6.734;2023-11-18T06:31:31;216.60;;;51.35;;
57651;SDS011;43480;53.116;6.734;2023-11-18T06:33:57;174.15;;;46.38;;
57651;SDS011;43480;53.116;6.734;2023-11-18T06:36:22;335.08;;;62.72;;
57651;SDS011;43480;53.116;6.734;2023-11-18T06:38:50;239.75;;;54.05;;
57651;SDS011;43480;53.116;6.734;2023-11-18T06:41:17;205.70;;;50.45;;
57651;SDS011;43480;53.116;6.734;2023-11-18T06:43:48;202.10;;;50.22;;
57651;SDS011;43480;53.116;6.734;2023-11-18T06:48:51;164.75;;;44.72;;
57651;SDS011;43480;53.116;6.734;2023-11-18T06:51:22;124.80;;;42.53;;
57651;SDS011;43480;53.116;6.734;2023-11-18T06:53:52;145.88;;;43.97;;
57651;SDS011;43480;53.116;6.734;2023-11-18T06:56:25;261.77;;;55.92;;
57651;SDS011;43480;53.116;6.734;2023-11-18T06:58:51;136.45;;;42.88;;
57651;SDS011;43480;53.116;6.734;2023-11-18T07:01:17;131.40;;;40.85;;
57651;SDS011;43480;53.116;6.734;2023-11-18T07:03:43;215.88;;;48.65;;
57651;SDS011;43480;53.116;6.734;2023-11-18T07:06:10;302.67;;;56.15;;
57651;SDS011;43480;53.116;6.734;2023-11-18T07:08:39;159.73;;;45.70;;
57651;SDS011;43480;53.116;6.734;2023-11-18T07:11:05;286.33;;;57.80;;
57651;SDS011;43480;53.116;6.734;2023-11-18T07:13:32;167.23;;;44.72;;
57651;SDS011;43480;53.116;6.734;2023-11-18T07:15:59;200.25;;;51.58;;
57651;SDS011;43480;53.116;6.734;2023-11-18T07:18:28;167.40;;;48.13;;
57651;SDS011;43480;53.116;6.734;2023-11-18T07:20:55;214.73;;;51.72;;
57651;SDS011;43480;53.116;6.734;2023-11-18T07:23:21;236.30;;;52.80;;
57651;SDS011;43480;53.116;6.734;2023-11-18T07:25:47;220.27;;;53.65;;
57651;SDS011;43480;53.116;6.734;2023-11-18T07:28:13;212.48;;;49.83;;
57651;SDS011;43480;53.116;6.734;2023-11-18T07:30:45;184.90;;;48.88;;
57651;SDS011;43480;53.116;6.734;2023-11-18T07:33:21;184.50;;;50.03;;
57651;SDS011;43480;53.116;6.734;2023-11-18T07:35:47;176.45;;;49.13;;
57651;SDS011;43480;53.116;6.734;2023-11-18T07:38:13;219.63;;;51.05;;
57651;SDS011;43480;53.116;6.734;2023-11-18T07:40:39;175.98;;;47.90;;
57651;SDS011;43480;53.116;6.734;2023-11-18T07:43:13;195.32;;;51.67;;
57651;SDS011;43480;53.116;6.734;2023-11-18T07:45:40;239.13;;;55.45;;
57651;SDS011;43480;53.116;6.734;2023-11-18T07:48:07;172.80;;;47.72;;
57651;SDS011;43480;53.116;6.734;2023-11-18T07:50:37;137.55;;;47.50;;
57651;SDS011;43480;53.116;6.734;2023-11-18T07:53:06;167.85;;;47.95;;
57651;SDS011;43480;53.116;6.734;2023-11-18T07:55:32;126.22;;;44.00;;
57651;SDS011;43480;53.116;6.734;2023-11-18T07:58:05;171.00;;;47.63;;
57651;SDS011;43480;53.116;6.734;2023-11-18T08:00:36;198.38;;;49.95;;
57651;SDS011;43480;53.116;6.734;2023-11-18T08:03:04;151.38;;;48.60;;
57651;SDS011;43480;53.116;6.734;2023-11-18T08:05:34;162.05;;;46.78;;
57651;SDS011;43480;53.116;6.734;2023-11-18T08:07:59;132.77;;;45.60;;
57651;SDS011;43480;53.116;6.734;2023-11-18T08:10:25;140.02;;;42.95;;
57651;SDS011;43480;53.116;6.734;2023-11-18T08:12:51;227.13;;;52.22;;
57651;SDS011;43480;53.116;6.734;2023-11-18T08:15:19;141.32;;;46.90;;
57651;SDS011;43480;53.116;6.734;2023-11-18T08:17:45;144.18;;;46.60;;
57651;SDS011;43480;53.116;6.734;2023-11-18T08:20:11;129.18;;;44.85;;
57651;SDS011;43480;53.116;6.734;2023-11-18T08:22:42;130.38;;;45.88;;
57651;SDS011;43480;53.116;6.734;2023-11-18T08:25:12;153.10;;;47.13;;
57651;SDS011;43480;53.116;6.734;2023-11-18T08:27:40;136.75;;;45.53;;
57651;SDS011;43480;53.116;6.734;2023-11-18T08:30:07;174.45;;;49.22;;
57651;SDS011;43480;53.116;6.734;2023-11-18T08:32:39;157.25;;;45.92;;
57651;SDS011;43480;53.116;6.734;2023-11-18T08:35:09;129.13;;;45.35;;
57651;SDS011;43480;53.116;6.734;2023-11-18T08:37:36;164.65;;;46.25;;
57651;SDS011;43480;53.116;6.734;2023-11-18T08:40:05;150.57;;;49.30;;
57651;SDS011;43480;53.116;6.734;2023-11-18T08:42:47;117.15;;;42.97;;
57651;SDS011;43480;53.116;6.734;2023-11-18T08:45:27;180.18;;;51.60;;
57651;SDS011;43480;53.116;6.734;2023-11-18T08:50:25;138.65;;;43.88;;
57651;SDS011;43480;53.116;6.734;2023-11-18T08:52:54;175.23;;;48.28;;
57651;SDS011;43480;53.116;6.734;2023-11-18T08:55:26;133.82;;;44.97;;
57651;SDS011;43480;53.116;6.734;2023-11-18T08:58:06;143.07;;;45.08;;
57651;SDS011;43480;53.116;6.734;2023-11-18T09:00:59;134.95;;;47.15;;
57651;SDS011;43480;53.116;6.734;2023-11-18T09:03:30;135.45;;;46.05;;
57651;SDS011;43480;53.116;6.734;2023-11-18T09:06:08;139.10;;;43.55;;
57651;SDS011;43480;53.116;6.734;2023-11-18T09:08:47;147.00;;;46.00;;
57651;SDS011;43480;53.116;6.734;2023-11-18T09:11:19;125.75;;;46.45;;
57651;SDS011;43480;53.116;6.734;2023-11-18T09:13:48;150.27;;;47.17;;
57651;SDS011;43480;53.116;6.734;2023-11-18T09:16:19;128.50;;;45.92;;
57651;SDS011;43480;53.116;6.734;2023-11-18T09:18:52;129.23;;;44.97;;
57651;SDS011;43480;53.116;6.734;2023-11-18T09:21:18;132.68;;;45.50;;
57651;SDS011;43480;53.116;6.734;2023-11-18T09:23:48;110.32;;;43.40;;
57651;SDS011;43480;53.116;6.734;2023-11-18T09:26:14;123.28;;;45.35;;
57651;SDS011;43480;53.116;6.734;2023-11-18T09:28:42;124.03;;;44.88;;
57651;SDS011;43480;53.116;6.734;2023-11-18T09:31:10;117.70;;;43.95;;
57651;SDS011;43480;53.116;6.734;2023-11-18T09:33:40;116.63;;;45.05;;
57651;SDS011;43480;53.116;6.734;2023-11-18T09:36:16;126.00;;;45.25;;
57651;SDS011;43480;53.116;6.734;2023-11-18T09:38:43;109.63;;;44.80;;
57651;SDS011;43480;53.116;6.734;2023-11-18T09:41:11;120.30;;;47.28;;
57651;SDS011;43480;53.116;6.734;2023-11-18T09:43:42;129.80;;;47.85;;
57651;SDS011;43480;53.116;6.734;2023-11-18T09:46:12;108.07;;;46.20;;
57651;SDS011;43480;53.116;6.734;2023-11-18T09:51:25;108.63;;;46.30;;
57651;SDS011;43480;53.116;6.734;2023-11-18T09:53:58;93.47;;;44.55;;
57651;SDS011;43480;53.116;6.734;2023-11-18T09:59:18;92.85;;;42.17;;
57651;SDS011;43480;53.116;6.734;2023-11-18T10:01:54;97.32;;;43.50;;
57651;SDS011;43480;53.116;6.734;2023-11-18T10:04:25;88.13;;;42.25;;
57651;SDS011;43480;53.116;6.734;2023-11-18T10:06:56;82.30;;;42.25;;
57651;SDS011;43480;53.116;6.734;2023-11-18T10:09:25;81.15;;;40.58;;
57651;SDS011;43480;53.116;6.734;2023-11-18T10:12:05;76.43;;;39.58;;
57651;SDS011;43480;53.116;6.734;2023-11-18T10:14:35;80.03;;;41.05;;
57651;SDS011;43480;53.116;6.734;2023-11-18T10:17:05;79.32;;;39.72;;
57651;SDS011;43480;53.116;6.734;2023-11-18T10:22:28;75.15;;;41.80;;
57651;SDS011;43480;53.116;6.734;2023-11-18T10:24:55;75.22;;;39.22;;
57651;SDS011;43480;53.116;6.734;2023-11-18T10:27:24;80.13;;;40.92;;
57651;SDS011;43480;53.116;6.734;2023-11-18T10:29:57;73.45;;;41.47;;
57651;SDS011;43480;53.116;6.734;2023-11-18T10:32:27;68.22;;;37.88;;
57651;SDS011;43480;53.116;6.734;2023-11-18T10:34:54;74.28;;;40.70;;
57651;SDS011;43480;53.116;6.734;2023-11-18T10:37:21;72.97;;;41.17;;
57651;SDS011;43480;53.116;6.734;2023-11-18T10:39:48;72.90;;;40.80;;
57651;SDS011;43480;53.116;6.734;2023-11-18T10:42:17;69.15;;;38.92;;
57651;SDS011;43480;53.116;6.734;2023-11-18T10:44:59;68.55;;;38.00;;
57651;SDS011;43480;53.116;6.734;2023-11-18T10:47:28;72.57;;;38.28;;
57651;SDS011;43480;53.116;6.734;2023-11-18T10:49:58;71.38;;;39.10;;
57651;SDS011;43480;53.116;6.734;2023-11-18T10:52:24;68.88;;;37.15;;
57651;SDS011;43480;53.116;6.734;2023-11-18T10:55:00;70.40;;;37.63;;
57651;SDS011;43480;53.116;6.734;2023-11-18T10:57:36;67.22;;;36.65;;
57651;SDS011;43480;53.116;6.734;2023-11-18T11:02:38;70.53;;;37.17;;
57651;SDS011;43480;53.116;6.734;2023-11-18T11:05:06;69.30;;;37.22;;
57651;SDS011;43480;53.116;6.734;2023-11-18T11:07:33;74.28;;;37.38;;
57651;SDS011;43480;53.116;6.734;2023-11-18T11:09:59;65.30;;;36.05;;
57651;SDS011;43480;53.116;6.734;2023-11-18T11:12:29;71.22;;;38.80;;
57651;SDS011;43480;53.116;6.734;2023-11-18T11:17:46;64.88;;;37.15;;
57651;SDS011;43480;53.116;6.734;2023-11-18T11:28:22;61.45;;;33.28;;
57651;SDS011;43480;53.116;6.734;2023-11-18T11:31:05;63.97;;;34.92;;
57651;SDS011;43480;53.116;6.734;2023-11-18T11:33:57;58.17;;;31.80;;
57651;SDS011;43480;53.116;6.734;2023-11-18T11:36:36;56.63;;;31.88;;
57651;SDS011;43480;53.116;6.734;2023-11-18T11:39:06;55.22;;;32.33;;
57651;SDS011;43480;53.116;6.734;2023-11-18T11:44:09;46.28;;;28.08;;
57651;SDS011;43480;53.116;6.734;2023-11-18T11:46:35;48.42;;;30.33;;
57651;SDS011;43480;53.116;6.734;2023-11-18T11:49:02;49.53;;;28.70;;
57651;SDS011;43480;53.116;6.734;2023-11-18T11:54:30;44.40;;;28.88;;
57651;SDS011;43480;53.116;6.734;2023-11-18T11:57:05;45.33;;;27.50;;
57651;SDS011;43480;53.116;6.734;2023-11-18T11:59:35;47.78;;;29.27;;
57651;SDS011;43480;53.116;6.734;2023-11-18T12:02:21;41.53;;;26.40;;
57651;SDS011;43480;53.116;6.734;2023-11-18T12:04:51;43.13;;;26.20;;
57651;SDS011;43480;53.116;6.734;2023-11-18T12:07:20;44.85;;;26.83;;
57651;SDS011;43480;53.116;6.734;2023-11-18T12:09:48;39.78;;;26.08;;
57651;SDS011;43480;53.116;6.734;2023-11-18T12:12:19;43.67;;;29.10;;
57651;SDS011;43480;53.116;6.734;2023-11-18T12:14:52;40.08;;;24.65;;
57651;SDS011;43480;53.116;6.734;2023-11-18T12:17:21;39.85;;;25.13;;
57651;SDS011;43480;53.116;6.734;2023-11-18T12:19:48;43.50;;;28.15;;
57651;SDS011;43480;53.116;6.734;2023-11-18T12:22:18;38.13;;;24.80;;
57651;SDS011;43480;53.116;6.734;2023-11-18T12:30:37;40.45;;;25.02;;
57651;SDS011;43480;53.116;6.734;2023-11-18T12:33:18;40.28;;;25.02;;
57651;SDS011;43480;53.116;6.734;2023-11-18T12:36:03;38.55;;;25.65;;
57651;SDS011;43480;53.116;6.734;2023-11-18T12:41:38;37.75;;;25.40;;
57651;SDS011;43480;53.116;6.734;2023-11-18T12:46:54;41.10;;;24.77;;
57651;SDS011;43480;53.116;6.734;2023-11-18T12:49:43;43.25;;;24.85;;
57651;SDS011;43480;53.116;6.734;2023-11-18T12:52:15;38.42;;;23.95;;
57651;SDS011;43480;53.116;6.734;2023-11-18T12:54:44;38.65;;;24.38;;
57651;SDS011;43480;53.116;6.734;2023-11-18T12:57:15;37.85;;;23.23;;
57651;SDS011;43480;53.116;6.734;2023-11-18T13:00:03;40.78;;;25.45;;
57651;SDS011;43480;53.116;6.734;2023-11-18T13:02:36;37.45;;;22.65;;
57651;SDS011;43480;53.116;6.734;2023-11-18T13:05:07;38.22;;;24.05;;
57651;SDS011;43480;53.116;6.734;2023-11-18T13:07:34;43.42;;;25.33;;
57651;SDS011;43480;53.116;6.734;2023-11-18T13:10:01;38.85;;;23.17;;
57651;SDS011;43480;53.116;6.734;2023-11-18T13:12:29;41.65;;;25.00;;
57651;SDS011;43480;53.116;6.734;2023-11-18T13:14:55;40.38;;;25.05;;
57651;SDS011;43480;53.116;6.734;2023-11-18T13:17:22;41.65;;;25.25;;
57651;SDS011;43480;53.116;6.734;2023-11-18T13:19:47;36.95;;;24.83;;
57651;SDS011;43480;53.116;6.734;2023-11-18T13:22:16;44.08;;;25.20;;
57651;SDS011;43480;53.116;6.734;2023-11-18T13:24:45;37.38;;;23.67;;
57651;SDS011;43480;53.116;6.734;2023-11-18T13:27:14;36.70;;;23.15;;
57651;SDS011;43480;53.116;6.734;2023-11-18T13:29:45;43.25;;;24.65;;
57651;SDS011;43480;53.116;6.734;2023-11-18T13:32:15;36.97;;;23.10;;
57651;SDS011;43480;53.116;6.734;2023-11-18T13:34:42;37.35;;;22.77;;
57651;SDS011;43480;53.116;6.734;2023-11-18T13:37:08;41.15;;;24.92;;
57651;SDS011;43480;53.116;6.734;2023-11-18T13:39:35;35.60;;;21.75;;
57651;SDS011;43480;53.116;6.734;2023-11-18T13:42:22;41.00;;;23.15;;
57651;SDS011;43480;53.116;6.734;2023-11-18T13:44:53;44.75;;;24.77;;
57651;SDS011;43480;53.116;6.734;2023-11-18T13:47:26;42.47;;;25.45;;
57651;SDS011;43480;53.116;6.734;2023-11-18T13:49:55;46.63;;;23.02;;
57651;SDS011;43480;53.116;6.734;2023-11-18T13:52:23;42.60;;;23.73;;
57651;SDS011;43480;53.116;6.734;2023-11-18T13:54:50;37.28;;;21.05;;
57651;SDS011;43480;53.116;6.734;2023-11-18T13:57:22;37.97;;;22.52;;
57651;SDS011;43480;53.116;6.734;2023-11-18T13:59:51;38.88;;;21.25;;
57651;SDS011;43480;53.116;6.734;2023-11-18T14:02:17;37.85;;;22.75;;
57651;SDS011;43480;53.116;6.734;2023-11-18T14:04:43;40.92;;;21.33;;
57651;SDS011;43480;53.116;6.734;2023-11-18T14:07:09;35.67;;;19.50;;
57651;SDS011;43480;53.116;6.734;2023-11-18T14:09:42;33.17;;;20.85;;
57651;SDS011;43480;53.116;6.734;2023-11-18T14:12:10;41.33;;;21.85;;
57651;SDS011;43480;53.116;6.734;2023-11-18T14:14:37;33.78;;;20.42;;
57651;SDS011;43480;53.116;6.734;2023-11-18T14:17:03;37.80;;;20.75;;
57651;SDS011;43480;53.116;6.734;2023-11-18T14:19:31;36.00;;;18.77;;
57651;SDS011;43480;53.116;6.734;2023-11-18T14:21:57;42.03;;;22.60;;
57651;SDS011;43480;53.116;6.734;2023-11-18T14:24:22;32.97;;;18.88;;
57651;SDS011;43480;53.116;6.734;2023-11-18T14:26:52;37.08;;;20.80;;
57651;SDS011;43480;53.116;6.734;2023-11-18T14:29:18;37.50;;;19.08;;
57651;SDS011;43480;53.116;6.734;2023-11-18T14:31:44;40.55;;;22.65;;
57651;SDS011;43480;53.116;6.734;2023-11-18T14:34:10;34.13;;;20.10;;
57651;SDS011;43480;53.116;6.734;2023-11-18T14:36:36;40.33;;;20.17;;
57651;SDS011;43480;53.116;6.734;2023-11-18T14:39:02;33.85;;;19.45;;
57651;SDS011;43480;53.116;6.734;2023-11-18T14:41:29;31.85;;;19.00;;
57651;SDS011;43480;53.116;6.734;2023-11-18T14:43:56;36.85;;;19.92;;
57651;SDS011;43480;53.116;6.734;2023-11-18T14:46:23;34.67;;;20.33;;
57651;SDS011;43480;53.116;6.734;2023-11-18T14:48:49;38.05;;;20.77;;
57651;SDS011;43480;53.116;6.734;2023-11-18T14:51:15;35.35;;;20.90;;
57651;SDS011;43480;53.116;6.734;2023-11-18T14:53:41;30.63;;;18.95;;
57651;SDS011;43480;53.116;6.734;2023-11-18T14:56:08;32.03;;;19.08;;
57651;SDS011;43480;53.116;6.734;2023-11-18T14:58:34;35.53;;;19.83;;
57651;SDS011;43480;53.116;6.734;2023-11-18T15:01:02;33.30;;;19.17;;
57651;SDS011;43480;53.116;6.734;2023-11-18T15:03:28;34.10;;;19.17;;
57651;SDS011;43480;53.116;6.734;2023-11-18T15:05:56;31.30;;;18.73;;
57651;SDS011;43480;53.116;6.734;2023-11-18T15:08:22;32.33;;;17.75;;